This is the latest recevied weather packets stored in our database for station/object DO2DV-13. If no packets are shown the sender has not sent any weather packets the latest 10 day(s).
| Time | Temp. | Humidity | Pressure | Rain* | Wind** | Luminosity | Snow |
|---|---|---|---|---|---|---|---|
| 1777447270 | 12.78° C | 43% | 1021.9 hPa | 0 mm | - | 324 W/m² | - |
| 1777431062 | 11.11° C | 52% | 1020.2 hPa | 0 mm | - | 0 W/m² | - |
| 1777428034 | 11.67° C | 52% | 1019.9 hPa | 0 mm | - | 0 W/m² | - |
| 1777427462 | 12.22° C | 51% | 1019.9 hPa | 0 mm | - | 0 W/m² | - |
| 1777426245 | 12.22° C | 50% | 1019.9 hPa | 0 mm | - | 0 W/m² | - |
| 1777423878 | 12.78° C | 50% | 1019.9 hPa | 0 mm | - | 0 W/m² | - |
| 1777418422 | 14.44° C | 48% | 1019.8 hPa | 0 mm | - | 0 W/m² | - |
| 1777408870 | 17.22° C | 40% | 1018.6 hPa | 0 mm | - | 0 W/m² | - |
| 1777407078 | 17.78° C | 39% | 1018.6 hPa | 0 mm | - | 0 W/m² | - |
| 1777399846 | 19.44° C | 37% | 1017.3 hPa | 0 mm | - | 23 W/m² | - |
| 1777399271 | 19.44° C | 37% | 1017.2 hPa | 0 mm | - | 29 W/m² | - |
| 1777393831 | 21.11° C | 35% | 1016.7 hPa | 0 mm | - | 123 W/m² | - |
| 1777393255 | 21.11° C | 34% | 1016.8 hPa | 0 mm | - | 142 W/m² | - |
| 1777392038 | 21.67° C | 33% | 1016.7 hPa | 0 mm | - | 186 W/m² | - |
| 1777389670 | 21.67° C | 33% | 1016.7 hPa | 0 mm | - | 271 W/m² | - |
| 1777389030 | 21.67° C | 32% | 1017 hPa | 0 mm | - | 222 W/m² | - |
| 1777385447 | 20.56° C | 32% | 1017.2 hPa | 0 mm | - | 180 W/m² | - |
| 1777384231 | 21.11° C | 32% | 1017.4 hPa | 0 mm | - | 188 W/m² | - |
| 1777383079 | 21.67° C | 33% | 1017.5 hPa | 0 mm | - | 585 W/m² | - |
| 1777380070 | 21.11° C | 31% | 1017.6 hPa | 0 mm | - | 556 W/m² | - |
| 1777379431 | 21.67° C | 30% | 1017.5 hPa | 0 mm | - | 683 W/m² | - |
| 1777371048 | 18.89° C | 41% | 1018 hPa | 0 mm | - | 638 W/m² | - |
| 1777368679 | 18.33° C | 43% | 1017.9 hPa | 0 mm | - | 669 W/m² | - |
| 1777362023 | 15° C | 47% | 1017.5 hPa | 0 mm | - | 375 W/m² | - |
| 1777360872 | 15° C | 48% | 1017.7 hPa | 0 mm | - | 315 W/m² | - |
* Rain latest hour (hover to see other rain measurements)
** Current wind speed in m/s (hover to see current wind gust speed)